sensor_id;sensor_type;location;lat;lon;timestamp;P1;durP1;ratioP1;P2;durP2;ratioP2
577;SDS011;275;48.492;9.214;2024-02-15T00:00:00;7.20;;;4.93;;
577;SDS011;275;48.492;9.214;2024-02-15T00:02:28;6.57;;;4.20;;
577;SDS011;275;48.492;9.214;2024-02-15T00:04:55;6.65;;;4.93;;
577;SDS011;275;48.492;9.214;2024-02-15T00:07:22;7.22;;;4.45;;
577;SDS011;275;48.492;9.214;2024-02-15T00:09:49;6.55;;;4.90;;
577;SDS011;275;48.492;9.214;2024-02-15T00:12:17;5.43;;;4.15;;
577;SDS011;275;48.492;9.214;2024-02-15T00:14:44;6.22;;;5.07;;
577;SDS011;275;48.492;9.214;2024-02-15T00:17:11;6.32;;;4.85;;
577;SDS011;275;48.492;9.214;2024-02-15T00:19:38;6.45;;;4.65;;
577;SDS011;275;48.492;9.214;2024-02-15T00:22:06;6.13;;;4.30;;
577;SDS011;275;48.492;9.214;2024-02-15T00:24:33;6.40;;;4.45;;
577;SDS011;275;48.492;9.214;2024-02-15T00:27:02;5.70;;;4.32;;
577;SDS011;275;48.492;9.214;2024-02-15T00:29:30;5.78;;;4.10;;
577;SDS011;275;48.492;9.214;2024-02-15T00:31:59;4.78;;;3.83;;
577;SDS011;275;48.492;9.214;2024-02-15T00:34:26;5.65;;;4.35;;
577;SDS011;275;48.492;9.214;2024-02-15T00:36:52;7.50;;;3.88;;
577;SDS011;275;48.492;9.214;2024-02-15T00:39:19;5.40;;;3.85;;
577;SDS011;275;48.492;9.214;2024-02-15T00:41:46;8.45;;;4.70;;
577;SDS011;275;48.492;9.214;2024-02-15T00:44:13;5.88;;;4.13;;
577;SDS011;275;48.492;9.214;2024-02-15T00:46:41;5.25;;;3.40;;
577;SDS011;275;48.492;9.214;2024-02-15T00:49:08;5.30;;;3.65;;
577;SDS011;275;48.492;9.214;2024-02-15T00:51:36;6.05;;;3.78;;
577;SDS011;275;48.492;9.214;2024-02-15T00:54:03;4.95;;;3.10;;
577;SDS011;275;48.492;9.214;2024-02-15T00:56:30;5.78;;;3.35;;
577;SDS011;275;48.492;9.214;2024-02-15T00:58:58;5.75;;;3.90;;
577;SDS011;275;48.492;9.214;2024-02-15T01:01:26;6.85;;;3.75;;
577;SDS011;275;48.492;9.214;2024-02-15T01:03:55;6.95;;;4.50;;
577;SDS011;275;48.492;9.214;2024-02-15T01:06:21;5.05;;;3.40;;
577;SDS011;275;48.492;9.214;2024-02-15T01:08:48;5.45;;;3.20;;
577;SDS011;275;48.492;9.214;2024-02-15T01:11:15;5.55;;;3.20;;
577;SDS011;275;48.492;9.214;2024-02-15T01:13:42;4.22;;;3.60;;
577;SDS011;275;48.492;9.214;2024-02-15T01:16:09;6.00;;;3.20;;
577;SDS011;275;48.492;9.214;2024-02-15T01:18:36;5.50;;;4.10;;
577;SDS011;275;48.492;9.214;2024-02-15T01:21:04;6.00;;;3.35;;
577;SDS011;275;48.492;9.214;2024-02-15T01:23:31;4.65;;;3.47;;
577;SDS011;275;48.492;9.214;2024-02-15T01:26:00;4.45;;;3.22;;
577;SDS011;275;48.492;9.214;2024-02-15T01:28:27;5.55;;;3.22;;
577;SDS011;275;48.492;9.214;2024-02-15T01:30:54;5.30;;;4.00;;
577;SDS011;275;48.492;9.214;2024-02-15T01:33:20;5.53;;;3.50;;
577;SDS011;275;48.492;9.214;2024-02-15T01:35:47;4.57;;;3.20;;
577;SDS011;275;48.492;9.214;2024-02-15T01:38:16;5.18;;;3.80;;
577;SDS011;275;48.492;9.214;2024-02-15T01:40:43;5.32;;;3.88;;
577;SDS011;275;48.492;9.214;2024-02-15T01:43:09;4.97;;;3.17;;
577;SDS011;275;48.492;9.214;2024-02-15T01:45:36;5.82;;;3.15;;
577;SDS011;275;48.492;9.214;2024-02-15T01:48:03;4.00;;;3.25;;
577;SDS011;275;48.492;9.214;2024-02-15T01:50:32;8.27;;;3.28;;
577;SDS011;275;48.492;9.214;2024-02-15T01:53:00;6.07;;;3.15;;
577;SDS011;275;48.492;9.214;2024-02-15T01:55:31;3.60;;;2.70;;
577;SDS011;275;48.492;9.214;2024-02-15T01:57:59;4.82;;;2.80;;
577;SDS011;275;48.492;9.214;2024-02-15T02:00:26;3.45;;;2.53;;
577;SDS011;275;48.492;9.214;2024-02-15T02:02:53;4.13;;;2.58;;
577;SDS011;275;48.492;9.214;2024-02-15T02:05:26;4.32;;;2.70;;
577;SDS011;275;48.492;9.214;2024-02-15T02:07:54;4.25;;;3.00;;
577;SDS011;275;48.492;9.214;2024-02-15T02:10:24;3.50;;;2.65;;
577;SDS011;275;48.492;9.214;2024-02-15T02:12:53;3.95;;;2.42;;
577;SDS011;275;48.492;9.214;2024-02-15T02:15:20;3.78;;;2.60;;
577;SDS011;275;48.492;9.214;2024-02-15T02:17:48;3.60;;;2.30;;
577;SDS011;275;48.492;9.214;2024-02-15T02:20:16;4.65;;;3.00;;
577;SDS011;275;48.492;9.214;2024-02-15T02:22:42;5.50;;;2.70;;
577;SDS011;275;48.492;9.214;2024-02-15T02:25:14;3.42;;;2.40;;
577;SDS011;275;48.492;9.214;2024-02-15T02:27:42;3.80;;;2.50;;
577;SDS011;275;48.492;9.214;2024-02-15T02:30:12;5.20;;;3.05;;
577;SDS011;275;48.492;9.214;2024-02-15T02:32:42;4.22;;;2.42;;
577;SDS011;275;48.492;9.214;2024-02-15T02:35:09;3.70;;;2.40;;
577;SDS011;275;48.492;9.214;2024-02-15T02:37:37;3.28;;;2.17;;
577;SDS011;275;48.492;9.214;2024-02-15T02:40:04;5.18;;;3.17;;
577;SDS011;275;48.492;9.214;2024-02-15T02:42:35;4.20;;;2.88;;
577;SDS011;275;48.492;9.214;2024-02-15T02:45:02;4.40;;;2.92;;
577;SDS011;275;48.492;9.214;2024-02-15T02:47:30;4.22;;;2.70;;
577;SDS011;275;48.492;9.214;2024-02-15T02:49:57;5.05;;;2.53;;
577;SDS011;275;48.492;9.214;2024-02-15T02:52:23;4.40;;;2.47;;
577;SDS011;275;48.492;9.214;2024-02-15T02:54:50;3.30;;;2.50;;
577;SDS011;275;48.492;9.214;2024-02-15T02:57:17;4.22;;;2.75;;
577;SDS011;275;48.492;9.214;2024-02-15T02:59:45;5.35;;;2.15;;
577;SDS011;275;48.492;9.214;2024-02-15T03:02:12;4.28;;;2.72;;
577;SDS011;275;48.492;9.214;2024-02-15T03:04:39;4.65;;;3.40;;
577;SDS011;275;48.492;9.214;2024-02-15T03:07:06;4.43;;;3.10;;
577;SDS011;275;48.492;9.214;2024-02-15T03:09:32;4.40;;;2.92;;
577;SDS011;275;48.492;9.214;2024-02-15T03:11:59;4.35;;;2.50;;
577;SDS011;275;48.492;9.214;2024-02-15T03:14:26;4.00;;;3.00;;
577;SDS011;275;48.492;9.214;2024-02-15T03:16:56;4.53;;;3.13;;
577;SDS011;275;48.492;9.214;2024-02-15T03:19:23;5.05;;;3.20;;
577;SDS011;275;48.492;9.214;2024-02-15T03:21:51;5.93;;;3.15;;
577;SDS011;275;48.492;9.214;2024-02-15T03:24:18;4.75;;;3.17;;
577;SDS011;275;48.492;9.214;2024-02-15T03:26:45;4.68;;;2.80;;
577;SDS011;275;48.492;9.214;2024-02-15T03:29:12;4.88;;;3.50;;
577;SDS011;275;48.492;9.214;2024-02-15T03:31:38;5.07;;;3.10;;
577;SDS011;275;48.492;9.214;2024-02-15T03:34:07;4.10;;;2.80;;
577;SDS011;275;48.492;9.214;2024-02-15T03:36:36;6.55;;;3.70;;
577;SDS011;275;48.492;9.214;2024-02-15T03:39:03;4.20;;;2.63;;
577;SDS011;275;48.492;9.214;2024-02-15T03:41:31;4.82;;;2.85;;
577;SDS011;275;48.492;9.214;2024-02-15T03:43:58;3.28;;;2.67;;
577;SDS011;275;48.492;9.214;2024-02-15T03:46:25;4.97;;;3.00;;
577;SDS011;275;48.492;9.214;2024-02-15T03:48:52;5.20;;;3.35;;
577;SDS011;275;48.492;9.214;2024-02-15T03:51:22;5.15;;;3.53;;
577;SDS011;275;48.492;9.214;2024-02-15T03:53:49;4.32;;;2.97;;
577;SDS011;275;48.492;9.214;2024-02-15T03:56:17;5.43;;;3.80;;
577;SDS011;275;48.492;9.214;2024-02-15T03:58:46;7.63;;;4.35;;
577;SDS011;275;48.492;9.214;2024-02-15T04:01:13;4.15;;;3.60;;
577;SDS011;275;48.492;9.214;2024-02-15T04:03:40;4.75;;;3.90;;
577;SDS011;275;48.492;9.214;2024-02-15T04:06:07;4.63;;;3.33;;
577;SDS011;275;48.492;9.214;2024-02-15T04:08:37;4.40;;;3.40;;
577;SDS011;275;48.492;9.214;2024-02-15T04:11:04;5.40;;;3.63;;
577;SDS011;275;48.492;9.214;2024-02-15T04:13:32;4.55;;;3.45;;
577;SDS011;275;48.492;9.214;2024-02-15T04:15:59;3.97;;;3.10;;
577;SDS011;275;48.492;9.214;2024-02-15T04:18:26;4.18;;;2.88;;
577;SDS011;275;48.492;9.214;2024-02-15T04:20:54;4.88;;;2.90;;
577;SDS011;275;48.492;9.214;2024-02-15T04:23:21;8.65;;;3.80;;
577;SDS011;275;48.492;9.214;2024-02-15T04:25:50;3.75;;;2.55;;
577;SDS011;275;48.492;9.214;2024-02-15T04:28:17;3.63;;;2.60;;
577;SDS011;275;48.492;9.214;2024-02-15T04:30:44;4.15;;;3.00;;
577;SDS011;275;48.492;9.214;2024-02-15T04:33:12;4.55;;;2.60;;
577;SDS011;275;48.492;9.214;2024-02-15T04:35:40;5.22;;;3.05;;
577;SDS011;275;48.492;9.214;2024-02-15T04:38:07;3.72;;;2.65;;
577;SDS011;275;48.492;9.214;2024-02-15T04:40:34;4.65;;;2.75;;
577;SDS011;275;48.492;9.214;2024-02-15T04:43:04;4.82;;;3.42;;
577;SDS011;275;48.492;9.214;2024-02-15T04:45:31;4.13;;;2.65;;
577;SDS011;275;48.492;9.214;2024-02-15T04:47:58;5.18;;;3.70;;
577;SDS011;275;48.492;9.214;2024-02-15T04:50:26;5.45;;;3.50;;
577;SDS011;275;48.492;9.214;2024-02-15T04:52:54;4.95;;;3.25;;
577;SDS011;275;48.492;9.214;2024-02-15T04:55:21;5.13;;;2.85;;
577;SDS011;275;48.492;9.214;2024-02-15T04:57:48;4.20;;;2.90;;
577;SDS011;275;48.492;9.214;2024-02-15T05:00:21;5.65;;;4.00;;
577;SDS011;275;48.492;9.214;2024-02-15T05:02:50;5.50;;;3.70;;
577;SDS011;275;48.492;9.214;2024-02-15T05:05:17;6.07;;;4.38;;
577;SDS011;275;48.492;9.214;2024-02-15T05:07:44;5.70;;;4.63;;
577;SDS011;275;48.492;9.214;2024-02-15T05:10:14;7.45;;;4.85;;
577;SDS011;275;48.492;9.214;2024-02-15T05:12:41;6.57;;;3.97;;
577;SDS011;275;48.492;9.214;2024-02-15T05:15:09;5.13;;;3.70;;
577;SDS011;275;48.492;9.214;2024-02-15T05:17:38;4.90;;;3.88;;
577;SDS011;275;48.492;9.214;2024-02-15T05:20:07;5.18;;;2.97;;
577;SDS011;275;48.492;9.214;2024-02-15T05:22:37;6.05;;;3.72;;
577;SDS011;275;48.492;9.214;2024-02-15T05:25:05;5.28;;;3.20;;
577;SDS011;275;48.492;9.214;2024-02-15T05:27:33;4.55;;;3.60;;
577;SDS011;275;48.492;9.214;2024-02-15T05:30:01;5.25;;;3.80;;
577;SDS011;275;48.492;9.214;2024-02-15T05:32:31;7.00;;;4.25;;
577;SDS011;275;48.492;9.214;2024-02-15T05:35:00;4.80;;;3.50;;
577;SDS011;275;48.492;9.214;2024-02-15T05:37:28;6.25;;;3.78;;
577;SDS011;275;48.492;9.214;2024-02-15T05:39:55;5.60;;;3.38;;
577;SDS011;275;48.492;9.214;2024-02-15T05:42:22;5.25;;;3.50;;
577;SDS011;275;48.492;9.214;2024-02-15T05:44:49;3.90;;;3.40;;
577;SDS011;275;48.492;9.214;2024-02-15T05:47:16;5.28;;;3.38;;
577;SDS011;275;48.492;9.214;2024-02-15T05:49:43;4.45;;;3.58;;
577;SDS011;275;48.492;9.214;2024-02-15T05:52:12;6.47;;;3.58;;
577;SDS011;275;48.492;9.214;2024-02-15T05:54:39;7.65;;;3.45;;
577;SDS011;275;48.492;9.214;2024-02-15T05:57:06;7.85;;;4.40;;
577;SDS011;275;48.492;9.214;2024-02-15T05:59:34;8.32;;;5.55;;
577;SDS011;275;48.492;9.214;2024-02-15T06:02:00;8.25;;;7.13;;
577;SDS011;275;48.492;9.214;2024-02-15T06:04:28;9.30;;;6.57;;
577;SDS011;275;48.492;9.214;2024-02-15T06:06:55;12.15;;;9.65;;
577;SDS011;275;48.492;9.214;2024-02-15T06:09:27;12.55;;;10.70;;
577;SDS011;275;48.492;9.214;2024-02-15T06:11:55;11.75;;;8.00;;
577;SDS011;275;48.492;9.214;2024-02-15T06:14:23;13.80;;;11.75;;
577;SDS011;275;48.492;9.214;2024-02-15T06:16:49;9.40;;;8.00;;
577;SDS011;275;48.492;9.214;2024-02-15T06:19:17;9.07;;;7.50;;
577;SDS011;275;48.492;9.214;2024-02-15T06:21:44;10.13;;;8.50;;
577;SDS011;275;48.492;9.214;2024-02-15T06:24:11;16.65;;;9.25;;
577;SDS011;275;48.492;9.214;2024-02-15T06:26:40;10.43;;;9.35;;
577;SDS011;275;48.492;9.214;2024-02-15T06:29:07;14.82;;;8.93;;
577;SDS011;275;48.492;9.214;2024-02-15T06:31:51;10.52;;;7.50;;
577;SDS011;275;48.492;9.214;2024-02-15T06:34:35;8.65;;;6.72;;
577;SDS011;275;48.492;9.214;2024-02-15T06:37:35;9.10;;;8.00;;
577;SDS011;275;48.492;9.214;2024-02-15T06:40:20;10.07;;;7.03;;
577;SDS011;275;48.492;9.214;2024-02-15T06:42:49;6.80;;;5.45;;
577;SDS011;275;48.492;9.214;2024-02-15T06:45:16;7.10;;;5.40;;
577;SDS011;275;48.492;9.214;2024-02-15T06:47:44;6.20;;;5.60;;
577;SDS011;275;48.492;9.214;2024-02-15T06:50:11;6.07;;;5.47;;
577;SDS011;275;48.492;9.214;2024-02-15T06:52:39;8.30;;;5.80;;
577;SDS011;275;48.492;9.214;2024-02-15T06:55:06;7.55;;;5.63;;
577;SDS011;275;48.492;9.214;2024-02-15T06:57:37;7.90;;;6.47;;
577;SDS011;275;48.492;9.214;2024-02-15T07:00:08;9.57;;;6.38;;
577;SDS011;275;48.492;9.214;2024-02-15T07:02:39;9.13;;;7.18;;
577;SDS011;275;48.492;9.214;2024-02-15T07:05:09;8.40;;;6.90;;
577;SDS011;275;48.492;9.214;2024-02-15T07:07:36;6.80;;;6.20;;
577;SDS011;275;48.492;9.214;2024-02-15T07:10:04;7.80;;;6.68;;
577;SDS011;275;48.492;9.214;2024-02-15T07:12:31;6.82;;;5.38;;
577;SDS011;275;48.492;9.214;2024-02-15T07:14:58;8.90;;;6.00;;
577;SDS011;275;48.492;9.214;2024-02-15T07:17:27;9.15;;;7.07;;
577;SDS011;275;48.492;9.214;2024-02-15T07:19:54;7.40;;;5.53;;
577;SDS011;275;48.492;9.214;2024-02-15T07:22:21;6.95;;;5.00;;
577;SDS011;275;48.492;9.214;2024-02-15T07:24:48;9.73;;;6.03;;
577;SDS011;275;48.492;9.214;2024-02-15T07:27:15;10.05;;;5.93;;
577;SDS011;275;48.492;9.214;2024-02-15T07:29:43;10.05;;;4.63;;
577;SDS011;275;48.492;9.214;2024-02-15T07:32:10;8.65;;;5.95;;
577;SDS011;275;48.492;9.214;2024-02-15T07:34:38;9.88;;;5.85;;
577;SDS011;275;48.492;9.214;2024-02-15T07:37:06;13.27;;;6.20;;
577;SDS011;275;48.492;9.214;2024-02-15T07:39:34;6.72;;;5.18;;
577;SDS011;275;48.492;9.214;2024-02-15T07:42:01;12.48;;;6.50;;
577;SDS011;275;48.492;9.214;2024-02-15T07:44:29;9.60;;;4.82;;
577;SDS011;275;48.492;9.214;2024-02-15T07:46:57;8.48;;;5.50;;
577;SDS011;275;48.492;9.214;2024-02-15T07:49:25;8.60;;;6.00;;
577;SDS011;275;48.492;9.214;2024-02-15T07:51:53;7.07;;;5.25;;
577;SDS011;275;48.492;9.214;2024-02-15T07:54:20;11.15;;;5.75;;
577;SDS011;275;48.492;9.214;2024-02-15T07:56:47;11.43;;;5.10;;
577;SDS011;275;48.492;9.214;2024-02-15T07:59:14;9.45;;;6.35;;
577;SDS011;275;48.492;9.214;2024-02-15T08:01:41;8.43;;;5.30;;
577;SDS011;275;48.492;9.214;2024-02-15T08:04:08;13.00;;;4.95;;
577;SDS011;275;48.492;9.214;2024-02-15T08:06:35;8.32;;;5.70;;
577;SDS011;275;48.492;9.214;2024-02-15T08:09:04;9.60;;;6.60;;
577;SDS011;275;48.492;9.214;2024-02-15T08:11:31;10.93;;;7.50;;
577;SDS011;275;48.492;9.214;2024-02-15T08:13:59;9.18;;;6.60;;
577;SDS011;275;48.492;9.214;2024-02-15T08:16:26;11.80;;;7.20;;
577;SDS011;275;48.492;9.214;2024-02-15T08:18:53;9.00;;;7.32;;
577;SDS011;275;48.492;9.214;2024-02-15T08:21:24;11.70;;;7.20;;
577;SDS011;275;48.492;9.214;2024-02-15T08:23:52;8.65;;;7.30;;
577;SDS011;275;48.492;9.214;2024-02-15T08:26:21;8.05;;;7.22;;
577;SDS011;275;48.492;9.214;2024-02-15T08:28:48;9.18;;;6.85;;
577;SDS011;275;48.492;9.214;2024-02-15T08:31:15;10.25;;;7.30;;
577;SDS011;275;48.492;9.214;2024-02-15T08:33:43;8.68;;;6.32;;
577;SDS011;275;48.492;9.214;2024-02-15T08:36:10;10.30;;;7.50;;
577;SDS011;275;48.492;9.214;2024-02-15T08:38:38;9.68;;;7.18;;
577;SDS011;275;48.492;9.214;2024-02-15T08:41:06;7.95;;;6.40;;
577;SDS011;275;48.492;9.214;2024-02-15T08:43:35;11.43;;;7.10;;
577;SDS011;275;48.492;9.214;2024-02-15T08:46:05;7.90;;;6.00;;
577;SDS011;275;48.492;9.214;2024-02-15T08:48:32;9.00;;;6.00;;
577;SDS011;275;48.492;9.214;2024-02-15T08:50:59;10.63;;;5.30;;
577;SDS011;275;48.492;9.214;2024-02-15T08:53:25;7.90;;;5.70;;
577;SDS011;275;48.492;9.214;2024-02-15T08:55:52;8.13;;;6.60;;
577;SDS011;275;48.492;9.214;2024-02-15T08:58:19;7.23;;;6.33;;
577;SDS011;275;48.492;9.214;2024-02-15T09:00:48;7.50;;;6.53;;
577;SDS011;275;48.492;9.214;2024-02-15T09:03:15;8.73;;;6.73;;
577;SDS011;275;48.492;9.214;2024-02-15T09:05:43;9.30;;;6.00;;
577;SDS011;275;48.492;9.214;2024-02-15T09:08:10;8.15;;;5.00;;
577;SDS011;275;48.492;9.214;2024-02-15T09:10:37;6.33;;;4.63;;
577;SDS011;275;48.492;9.214;2024-02-15T09:13:04;6.55;;;5.30;;
577;SDS011;275;48.492;9.214;2024-02-15T09:15:32;9.37;;;5.87;;
577;SDS011;275;48.492;9.214;2024-02-15T09:18:00;9.18;;;6.00;;
577;SDS011;275;48.492;9.214;2024-02-15T09:20:27;8.10;;;6.57;;
577;SDS011;275;48.492;9.214;2024-02-15T09:22:55;11.23;;;6.05;;
577;SDS011;275;48.492;9.214;2024-02-15T09:25:22;10.93;;;7.25;;
577;SDS011;275;48.492;9.214;2024-02-15T09:27:50;12.60;;;6.50;;
577;SDS011;275;48.492;9.214;2024-02-15T09:30:19;7.03;;;6.32;;
577;SDS011;275;48.492;9.214;2024-02-15T09:32:49;7.47;;;6.00;;
577;SDS011;275;48.492;9.214;2024-02-15T09:35:18;11.60;;;6.47;;
577;SDS011;275;48.492;9.214;2024-02-15T09:37:46;9.00;;;6.20;;
577;SDS011;275;48.492;9.214;2024-02-15T09:40:14;7.72;;;4.85;;
577;SDS011;275;48.492;9.214;2024-02-15T09:42:42;11.23;;;6.43;;
577;SDS011;275;48.492;9.214;2024-02-15T09:45:10;9.10;;;5.78;;
577;SDS011;275;48.492;9.214;2024-02-15T09:47:39;8.85;;;5.80;;
577;SDS011;275;48.492;9.214;2024-02-15T09:50:07;9.77;;;5.87;;
577;SDS011;275;48.492;9.214;2024-02-15T09:52:37;8.47;;;5.13;;
577;SDS011;275;48.492;9.214;2024-02-15T09:55:06;7.60;;;4.93;;
577;SDS011;275;48.492;9.214;2024-02-15T09:57:38;6.13;;;5.23;;
577;SDS011;275;48.492;9.214;2024-02-15T10:00:05;6.80;;;4.60;;
577;SDS011;275;48.492;9.214;2024-02-15T10:02:33;8.37;;;5.77;;
577;SDS011;275;48.492;9.214;2024-02-15T10:05:02;5.87;;;3.90;;
577;SDS011;275;48.492;9.214;2024-02-15T10:07:29;6.40;;;5.10;;
577;SDS011;275;48.492;9.214;2024-02-15T10:09:57;7.63;;;4.87;;
577;SDS011;275;48.492;9.214;2024-02-15T10:12:41;8.10;;;5.27;;
577;SDS011;275;48.492;9.214;2024-02-15T10:15:09;7.57;;;5.67;;
577;SDS011;275;48.492;9.214;2024-02-15T10:17:36;5.20;;;4.10;;
577;SDS011;275;48.492;9.214;2024-02-15T10:20:03;7.00;;;4.50;;
577;SDS011;275;48.492;9.214;2024-02-15T10:22:31;7.00;;;4.70;;
577;SDS011;275;48.492;9.214;2024-02-15T10:25:12;8.20;;;5.53;;
577;SDS011;275;48.492;9.214;2024-02-15T10:27:39;7.17;;;4.73;;
577;SDS011;275;48.492;9.214;2024-02-15T10:30:16;6.03;;;4.10;;
577;SDS011;275;48.492;9.214;2024-02-15T10:32:46;6.60;;;5.63;;
577;SDS011;275;48.492;9.214;2024-02-15T10:35:20;6.60;;;4.50;;
577;SDS011;275;48.492;9.214;2024-02-15T10:37:48;9.43;;;4.67;;
577;SDS011;275;48.492;9.214;2024-02-15T10:40:20;5.77;;;4.10;;
577;SDS011;275;48.492;9.214;2024-02-15T10:42:48;7.50;;;4.33;;
577;SDS011;275;48.492;9.214;2024-02-15T10:45:17;6.00;;;4.20;;
577;SDS011;275;48.492;9.214;2024-02-15T10:47:45;8.57;;;4.67;;
577;SDS011;275;48.492;9.214;2024-02-15T10:50:13;6.73;;;4.20;;
577;SDS011;275;48.492;9.214;2024-02-15T10:52:43;7.43;;;4.10;;
577;SDS011;275;48.492;9.214;2024-02-15T10:55:14;4.90;;;3.70;;
577;SDS011;275;48.492;9.214;2024-02-15T10:57:50;5.50;;;3.83;;
577;SDS011;275;48.492;9.214;2024-02-15T11:00:19;4.33;;;3.00;;
577;SDS011;275;48.492;9.214;2024-02-15T11:02:54;4.80;;;2.60;;
577;SDS011;275;48.492;9.214;2024-02-15T11:05:30;6.20;;;2.90;;
577;SDS011;275;48.492;9.214;2024-02-15T11:08:02;3.97;;;2.73;;
577;SDS011;275;48.492;9.214;2024-02-15T11:10:30;6.27;;;2.53;;
577;SDS011;275;48.492;9.214;2024-02-15T11:13:02;7.70;;;2.73;;
577;SDS011;275;48.492;9.214;2024-02-15T11:15:42;3.73;;;2.60;;
577;SDS011;275;48.492;9.214;2024-02-15T11:21:25;4.30;;;2.40;;
577;SDS011;275;48.492;9.214;2024-02-15T11:24:25;5.50;;;2.57;;
577;SDS011;275;48.492;9.214;2024-02-15T11:26:53;6.80;;;2.60;;
577;SDS011;275;48.492;9.214;2024-02-15T11:32:34;5.70;;;2.40;;
577;SDS011;275;48.492;9.214;2024-02-15T11:35:08;5.13;;;2.60;;
577;SDS011;275;48.492;9.214;2024-02-15T11:46:16;3.67;;;1.93;;
577;SDS011;275;48.492;9.214;2024-02-15T11:48:44;5.90;;;2.13;;
577;SDS011;275;48.492;9.214;2024-02-15T11:51:11;3.83;;;2.70;;
577;SDS011;275;48.492;9.214;2024-02-15T11:54:02;4.27;;;2.40;;
577;SDS011;275;48.492;9.214;2024-02-15T11:56:33;7.40;;;2.30;;
577;SDS011;275;48.492;9.214;2024-02-15T11:59:19;4.57;;;2.17;;
577;SDS011;275;48.492;9.214;2024-02-15T12:01:58;4.97;;;2.33;;
577;SDS011;275;48.492;9.214;2024-02-15T12:04:42;8.73;;;3.63;;
577;SDS011;275;48.492;9.214;2024-02-15T12:07:27;4.27;;;2.17;;
577;SDS011;275;48.492;9.214;2024-02-15T12:10:15;4.73;;;2.30;;
577;SDS011;275;48.492;9.214;2024-02-15T12:13:00;5.90;;;2.80;;
577;SDS011;275;48.492;9.214;2024-02-15T12:15:55;4.40;;;2.30;;
577;SDS011;275;48.492;9.214;2024-02-15T12:18:42;5.00;;;2.17;;
577;SDS011;275;48.492;9.214;2024-02-15T12:21:10;8.33;;;2.30;;
577;SDS011;275;48.492;9.214;2024-02-15T12:23:41;6.33;;;2.60;;
577;SDS011;275;48.492;9.214;2024-02-15T12:26:08;5.07;;;2.50;;
577;SDS011;275;48.492;9.214;2024-02-15T12:28:36;3.40;;;1.60;;
577;SDS011;275;48.492;9.214;2024-02-15T12:31:03;4.70;;;2.07;;
577;SDS011;275;48.492;9.214;2024-02-15T12:33:32;4.13;;;1.90;;
577;SDS011;275;48.492;9.214;2024-02-15T12:36:07;5.40;;;2.43;;
577;SDS011;275;48.492;9.214;2024-02-15T12:38:35;5.23;;;1.80;;
577;SDS011;275;48.492;9.214;2024-02-15T12:41:03;6.07;;;2.00;;
577;SDS011;275;48.492;9.214;2024-02-15T12:43:30;7.40;;;2.40;;
577;SDS011;275;48.492;9.214;2024-02-15T12:45:57;4.77;;;2.00;;
577;SDS011;275;48.492;9.214;2024-02-15T12:48:24;5.60;;;2.40;;
577;SDS011;275;48.492;9.214;2024-02-15T12:50:51;4.30;;;1.80;;
577;SDS011;275;48.492;9.214;2024-02-15T12:53:23;3.67;;;1.77;;
577;SDS011;275;48.492;9.214;2024-02-15T12:55:54;6.10;;;2.50;;
577;SDS011;275;48.492;9.214;2024-02-15T12:58:22;4.10;;;2.47;;
577;SDS011;275;48.492;9.214;2024-02-15T13:00:54;4.43;;;2.20;;
577;SDS011;275;48.492;9.214;2024-02-15T13:03:23;4.47;;;1.93;;
577;SDS011;275;48.492;9.214;2024-02-15T13:05:50;4.87;;;2.30;;
577;SDS011;275;48.492;9.214;2024-02-15T13:08:17;4.60;;;2.27;;
577;SDS011;275;48.492;9.214;2024-02-15T13:10:46;5.97;;;2.93;;
577;SDS011;275;48.492;9.214;2024-02-15T13:13:13;4.53;;;2.80;;
577;SDS011;275;48.492;9.214;2024-02-15T13:15:41;4.40;;;2.20;;
577;SDS011;275;48.492;9.214;2024-02-15T13:18:09;3.83;;;2.10;;
577;SDS011;275;48.492;9.214;2024-02-15T13:20:37;4.90;;;2.13;;
577;SDS011;275;48.492;9.214;2024-02-15T13:23:04;3.77;;;1.60;;
577;SDS011;275;48.492;9.214;2024-02-15T13:25:34;4.87;;;2.00;;
577;SDS011;275;48.492;9.214;2024-02-15T13:28:04;4.73;;;2.10;;
577;SDS011;275;48.492;9.214;2024-02-15T13:30:31;4.90;;;2.33;;
577;SDS011;275;48.492;9.214;2024-02-15T13:32:58;4.80;;;2.30;;
577;SDS011;275;48.492;9.214;2024-02-15T13:35:26;6.90;;;3.37;;
577;SDS011;275;48.492;9.214;2024-02-15T13:37:53;5.37;;;2.83;;
577;SDS011;275;48.492;9.214;2024-02-15T13:40:23;6.07;;;3.10;;
577;SDS011;275;48.492;9.214;2024-02-15T13:42:51;4.70;;;2.53;;
577;SDS011;275;48.492;9.214;2024-02-15T13:45:26;4.07;;;2.30;;
577;SDS011;275;48.492;9.214;2024-02-15T13:47:57;6.37;;;2.50;;
577;SDS011;275;48.492;9.214;2024-02-15T13:50:26;4.23;;;1.80;;
577;SDS011;275;48.492;9.214;2024-02-15T13:52:54;3.63;;;2.30;;
577;SDS011;275;48.492;9.214;2024-02-15T13:55:21;6.00;;;2.33;;
577;SDS011;275;48.492;9.214;2024-02-15T13:57:47;3.27;;;1.60;;
577;SDS011;275;48.492;9.214;2024-02-15T14:00:15;5.10;;;2.00;;
577;SDS011;275;48.492;9.214;2024-02-15T14:02:48;5.93;;;2.80;;
577;SDS011;275;48.492;9.214;2024-02-15T14:05:15;4.50;;;2.20;;
577;SDS011;275;48.492;9.214;2024-02-15T14:07:45;5.77;;;2.63;;
577;SDS011;275;48.492;9.214;2024-02-15T14:10:13;6.37;;;2.00;;
577;SDS011;275;48.492;9.214;2024-02-15T14:12:40;4.40;;;2.00;;
577;SDS011;275;48.492;9.214;2024-02-15T14:15:07;5.00;;;2.40;;
577;SDS011;275;48.492;9.214;2024-02-15T14:17:35;4.33;;;2.63;;
577;SDS011;275;48.492;9.214;2024-02-15T14:20:03;4.70;;;2.60;;
577;SDS011;275;48.492;9.214;2024-02-15T14:22:33;5.10;;;2.97;;
577;SDS011;275;48.492;9.214;2024-02-15T14:25:00;5.17;;;2.50;;
577;SDS011;275;48.492;9.214;2024-02-15T14:27:29;6.90;;;2.70;;
577;SDS011;275;48.492;9.214;2024-02-15T14:29:57;6.93;;;3.40;;
577;SDS011;275;48.492;9.214;2024-02-15T14:32:41;4.80;;;2.33;;
577;SDS011;275;48.492;9.214;2024-02-15T14:35:29;5.60;;;2.40;;
577;SDS011;275;48.492;9.214;2024-02-15T14:37:59;5.53;;;3.03;;
577;SDS011;275;48.492;9.214;2024-02-15T14:40:30;3.80;;;1.90;;
577;SDS011;275;48.492;9.214;2024-02-15T14:42:58;5.90;;;2.50;;
577;SDS011;275;48.492;9.214;2024-02-15T14:45:25;3.63;;;2.00;;
577;SDS011;275;48.492;9.214;2024-02-15T14:47:52;5.57;;;2.07;;
577;SDS011;275;48.492;9.214;2024-02-15T14:50:18;7.10;;;3.80;;
577;SDS011;275;48.492;9.214;2024-02-15T14:52:47;3.93;;;2.10;;
577;SDS011;275;48.492;9.214;2024-02-15T14:55:14;5.10;;;1.90;;
577;SDS011;275;48.492;9.214;2024-02-15T14:57:42;5.37;;;2.50;;
577;SDS011;275;48.492;9.214;2024-02-15T15:00:09;5.77;;;2.13;;
577;SDS011;275;48.492;9.214;2024-02-15T15:02:37;4.90;;;2.40;;
577;SDS011;275;48.492;9.214;2024-02-15T15:05:04;5.43;;;2.60;;
577;SDS011;275;48.492;9.214;2024-02-15T15:07:51;4.70;;;2.23;;
577;SDS011;275;48.492;9.214;2024-02-15T15:10:37;4.63;;;2.17;;
577;SDS011;275;48.492;9.214;2024-02-15T15:13:22;5.53;;;3.40;;
577;SDS011;275;48.492;9.214;2024-02-15T15:15:48;5.00;;;2.70;;
577;SDS011;275;48.492;9.214;2024-02-15T15:18:15;8.93;;;4.27;;
577;SDS011;275;48.492;9.214;2024-02-15T15:20:42;5.97;;;2.77;;
577;SDS011;275;48.492;9.214;2024-02-15T15:23:10;5.03;;;2.23;;
577;SDS011;275;48.492;9.214;2024-02-15T15:25:39;5.77;;;2.97;;
577;SDS011;275;48.492;9.214;2024-02-15T15:28:06;5.40;;;3.10;;
577;SDS011;275;48.492;9.214;2024-02-15T15:30:33;6.57;;;2.83;;
577;SDS011;275;48.492;9.214;2024-02-15T15:33:01;6.00;;;3.20;;
577;SDS011;275;48.492;9.214;2024-02-15T15:35:28;5.87;;;3.47;;
577;SDS011;275;48.492;9.214;2024-02-15T15:37:54;7.30;;;3.00;;
577;SDS011;275;48.492;9.214;2024-02-15T15:40:24;7.40;;;3.20;;
577;SDS011;275;48.492;9.214;2024-02-15T15:42:51;7.57;;;3.00;;
577;SDS011;275;48.492;9.214;2024-02-15T15:45:19;4.70;;;2.67;;
577;SDS011;275;48.492;9.214;2024-02-15T15:47:47;4.67;;;2.60;;
577;SDS011;275;48.492;9.214;2024-02-15T15:50:14;5.60;;;3.37;;
577;SDS011;275;48.492;9.214;2024-02-15T15:52:42;11.97;;;3.40;;
577;SDS011;275;48.492;9.214;2024-02-15T15:55:09;6.60;;;3.00;;
577;SDS011;275;48.492;9.214;2024-02-15T15:57:38;7.30;;;3.40;;
577;SDS011;275;48.492;9.214;2024-02-15T16:00:07;7.20;;;3.43;;
577;SDS011;275;48.492;9.214;2024-02-15T16:02:40;10.70;;;4.20;;
577;SDS011;275;48.492;9.214;2024-02-15T16:05:08;5.77;;;3.90;;
577;SDS011;275;48.492;9.214;2024-02-15T16:07:37;5.37;;;3.40;;
577;SDS011;275;48.492;9.214;2024-02-15T16:10:06;5.70;;;3.90;;